createdAt,value
2018-12-31T00:00:16.998Z,53.60
2018-12-31T00:02:49.898Z,53.23
2018-12-31T00:05:21.002Z,51.50
2018-12-31T00:07:53.314Z,49.93
2018-12-31T00:10:26.214Z,51.63
2018-12-31T00:12:56.496Z,52.03
2018-12-31T00:15:27.759Z,53.87
2018-12-31T00:18:01.066Z,56.37
2018-12-31T00:20:32.319Z,60.47
2018-12-31T00:23:03.486Z,66.33
2018-12-31T00:25:34.577Z,64.53
2018-12-31T00:28:06.050Z,69.60
2018-12-31T00:30:36.227Z,67.23
2018-12-31T00:33:07.282Z,69.93
2018-12-31T00:35:37.869Z,70.30
2018-12-31T00:38:08.957Z,64.47
2018-12-31T00:40:42.826Z,63.43
2018-12-31T00:43:13.986Z,64.93
2018-12-31T00:45:47.979Z,65.43
2018-12-31T00:48:19.290Z,64.03
2018-12-31T00:50:51.499Z,68.10
2018-12-31T00:53:22.954Z,71.10
2018-12-31T00:55:54.998Z,70.47
2018-12-31T00:58:26.621Z,116.17
2018-12-31T01:00:57.909Z,72.47
2018-12-31T01:03:28.053Z,71.00
2018-12-31T01:05:59.268Z,71.27
2018-12-31T01:08:29.541Z,69.63
2018-12-31T01:11:01.605Z,65.03
2018-12-31T01:13:34.140Z,71.10
2018-12-31T01:16:05.377Z,59.53
2018-12-31T01:18:41.841Z,60.07
2018-12-31T01:21:16.470Z,62.70
2018-12-31T01:23:48.298Z,53.17
2018-12-31T01:26:19.016Z,51.10
2018-12-31T01:28:51.384Z,52.87
2018-12-31T01:31:21.540Z,47.57
2018-12-31T01:33:53.338Z,50.27
2018-12-31T01:36:24.409Z,52.43
2018-12-31T01:38:54.678Z,48.43
2018-12-31T01:41:26.145Z,45.87
2018-12-31T01:43:57.354Z,52.57
2018-12-31T01:46:28.500Z,45.00
2018-12-31T01:48:59.937Z,44.30
2018-12-31T01:51:30.529Z,46.23
2018-12-31T01:54:00.761Z,43.60
2018-12-31T01:56:32.779Z,44.73
2018-12-31T01:59:04.802Z,43.93
2018-12-31T02:01:37.193Z,41.77
2018-12-31T02:04:09.698Z,41.67
2018-12-31T02:06:40.114Z,48.67
2018-12-31T02:09:11.226Z,43.73
2018-12-31T02:11:41.440Z,54.60
2018-12-31T02:14:12.605Z,42.43
2018-12-31T02:16:43.735Z,43.17
2018-12-31T02:19:15.915Z,41.77
2018-12-31T02:21:47.049Z,42.50
2018-12-31T02:24:18.609Z,39.37
2018-12-31T02:26:50.995Z,37.30
2018-12-31T02:29:22.945Z,86.87
2018-12-31T02:31:55.047Z,77.73
2018-12-31T02:34:26.262Z,82.90
2018-12-31T02:36:56.456Z,113.87
2018-12-31T02:42:21.218Z,111.10
2018-12-31T02:44:51.495Z,123.50
2018-12-31T02:47:21.634Z,98.33
2018-12-31T02:49:52.850Z,110.77
2018-12-31T02:52:24.817Z,88.23
2018-12-31T02:54:56.030Z,79.60
2018-12-31T02:57:27.724Z,81.87
2018-12-31T02:59:59.078Z,77.23
2018-12-31T03:02:28.930Z,76.10
2018-12-31T03:05:00.644Z,69.27
2018-12-31T03:07:30.891Z,73.43
2018-12-31T03:10:02.013Z,65.87
2018-12-31T03:12:33.182Z,60.73
2018-12-31T03:15:05.680Z,64.13
2018-12-31T03:17:36.720Z,59.67
2018-12-31T03:20:07.835Z,57.73
2018-12-31T03:22:40.313Z,57.60
2018-12-31T03:25:10.618Z,56.93
2018-12-31T03:27:43.813Z,57.57
2018-12-31T03:30:15.933Z,51.10
2018-12-31T03:32:47.047Z,51.27
2018-12-31T03:35:18.398Z,55.40
2018-12-31T03:37:50.573Z,55.00
2018-12-31T03:40:20.899Z,55.63
2018-12-31T03:42:52.047Z,52.07
2018-12-31T03:45:23.681Z,53.70
2018-12-31T03:47:56.022Z,60.47
2018-12-31T03:50:26.194Z,62.30
2018-12-31T03:52:56.466Z,61.07
2018-12-31T03:55:28.529Z,61.20
2018-12-31T03:58:00.148Z,58.57
2018-12-31T04:00:30.397Z,58.23
2018-12-31T04:03:01.775Z,56.23
2018-12-31T04:05:32.980Z,60.93
2018-12-31T04:08:05.846Z,62.37
2018-12-31T04:10:36.087Z,61.03
2018-12-31T04:13:07.226Z,60.03
2018-12-31T04:15:37.646Z,68.40
2018-12-31T04:18:11.622Z,64.83
2018-12-31T04:20:42.822Z,58.13
2018-12-31T04:23:12.985Z,68.93
2018-12-31T04:25:43.994Z,61.07
2018-12-31T04:28:14.290Z,62.47
2018-12-31T04:30:46.321Z,62.77
2018-12-31T04:33:18.418Z,64.13
2018-12-31T04:35:48.617Z,64.60
2018-12-31T04:38:19.742Z,65.83
2018-12-31T04:43:39.453Z,68.70
2018-12-31T04:46:10.590Z,63.13
2018-12-31T04:48:42.255Z,67.13
2018-12-31T04:51:13.425Z,63.77
2018-12-31T04:53:44.871Z,64.97
2018-12-31T04:56:16.117Z,71.27
2018-12-31T04:58:47.750Z,71.93
2018-12-31T05:01:20.545Z,65.03
2018-12-31T05:03:54.568Z,66.00
2018-12-31T05:06:24.922Z,65.90
2018-12-31T05:08:56.473Z,67.17
2018-12-31T05:11:29.766Z,68.43
2018-12-31T05:13:59.490Z,71.50
2018-12-31T05:16:30.951Z,64.53
2018-12-31T05:19:05.436Z,72.00
2018-12-31T05:21:35.709Z,84.00
2018-12-31T05:24:07.776Z,77.43
2018-12-31T05:26:39.334Z,72.17
2018-12-31T05:29:11.115Z,74.20
2018-12-31T05:31:42.338Z,73.23
2018-12-31T05:34:12.534Z,67.30
2018-12-31T05:36:42.795Z,68.03
2018-12-31T05:39:13.165Z,66.93
2018-12-31T05:41:43.402Z,73.50
2018-12-31T05:44:17.009Z,68.37
2018-12-31T05:46:50.030Z,74.40
2018-12-31T05:49:23.977Z,71.30
2018-12-31T05:51:55.117Z,62.03
2018-12-31T05:54:25.513Z,66.73
2018-12-31T05:56:56.732Z,67.17
2018-12-31T05:59:29.176Z,64.87
2018-12-31T06:01:59.489Z,63.63
2018-12-31T06:04:30.700Z,64.33
2018-12-31T06:07:03.742Z,61.00
2018-12-31T06:09:35.790Z,55.77
2018-12-31T06:12:06.939Z,64.63
2018-12-31T06:14:39.335Z,58.73
2018-12-31T06:17:09.579Z,62.30
2018-12-31T06:19:40.106Z,62.50
2018-12-31T06:22:11.559Z,67.03
2018-12-31T06:24:43.996Z,60.63
2018-12-31T06:27:16.177Z,65.13
2018-12-31T06:29:47.357Z,62.20
2018-12-31T06:32:18.890Z,66.57
2018-12-31T06:34:49.151Z,70.53
2018-12-31T06:37:20.884Z,71.20
2018-12-31T06:39:52.014Z,62.23
2018-12-31T06:42:24.160Z,67.27
2018-12-31T06:44:57.412Z,64.57
2018-12-31T06:47:27.616Z,68.33
2018-12-31T06:49:58.750Z,66.17
2018-12-31T06:52:30.198Z,57.77
2018-12-31T06:55:01.444Z,64.73
2018-12-31T06:57:31.716Z,64.63
2018-12-31T07:00:02.916Z,64.90
2018-12-31T07:02:33.183Z,62.13
2018-12-31T07:05:06.307Z,61.20
2018-12-31T07:07:38.274Z,66.20
2018-12-31T07:10:09.830Z,67.30
2018-12-31T07:12:42.233Z,66.00
2018-12-31T07:15:14.755Z,62.37
2018-12-31T07:17:46.014Z,66.90
2018-12-31T07:20:17.131Z,54.93
2018-12-31T07:22:48.514Z,60.50
2018-12-31T07:25:19.719Z,62.77
2018-12-31T07:27:49.986Z,54.97
2018-12-31T07:30:21.235Z,59.27
2018-12-31T07:32:51.429Z,57.90
2018-12-31T07:35:25.105Z,61.67
2018-12-31T07:37:56.235Z,54.33
2018-12-31T07:40:27.441Z,58.90
2018-12-31T07:42:57.652Z,61.00
2018-12-31T07:45:28.705Z,60.00
2018-12-31T07:48:01.166Z,57.87
2018-12-31T07:50:33.662Z,57.73
2018-12-31T07:53:03.850Z,60.50
2018-12-31T07:55:36.037Z,57.17
2018-12-31T07:58:06.601Z,56.57
2018-12-31T08:00:38.118Z,59.20
2018-12-31T08:03:11.986Z,54.83
2018-12-31T08:05:43.629Z,58.73
2018-12-31T08:08:18.679Z,53.30
2018-12-31T08:10:52.550Z,60.23
2018-12-31T08:13:23.712Z,50.70
2018-12-31T08:15:57.610Z,62.20
2018-12-31T08:18:29.047Z,57.07
2018-12-31T08:21:00.687Z,55.70
2018-12-31T08:23:30.538Z,61.73
2018-12-31T08:26:00.553Z,58.03
2018-12-31T08:28:30.754Z,56.90
2018-12-31T08:31:00.898Z,60.57
2018-12-31T08:33:31.050Z,59.67
2018-12-31T08:36:01.150Z,61.47
2018-12-31T08:38:30.914Z,61.83
2018-12-31T08:41:01.949Z,58.90
2018-12-31T08:43:33.707Z,61.63
2018-12-31T08:46:05.181Z,57.60
2018-12-31T08:48:36.013Z,69.23
2018-12-31T08:51:08.498Z,57.73
2018-12-31T08:53:38.497Z,61.90
2018-12-31T08:56:09.590Z,61.90
2018-12-31T08:58:39.804Z,66.20
2018-12-31T09:01:09.689Z,65.27
2018-12-31T09:03:40.737Z,76.13
2018-12-31T09:06:11.569Z,58.63
2018-12-31T09:08:41.940Z,66.43
2018-12-31T09:11:14.338Z,67.73
2018-12-31T09:13:45.354Z,76.93
2018-12-31T09:16:16.526Z,77.43
2018-12-31T09:18:46.797Z,75.40
2018-12-31T09:21:17.928Z,70.93
2018-12-31T09:23:48.995Z,75.50
2018-12-31T09:26:19.794Z,72.37
2018-12-31T09:28:49.881Z,77.97
2018-12-31T09:31:23.789Z,74.93
2018-12-31T09:33:54.460Z,64.27
2018-12-31T09:36:25.613Z,76.83
2018-12-31T09:38:55.900Z,67.57
2018-12-31T09:41:27.369Z,69.63
2018-12-31T09:43:57.646Z,64.73
2018-12-31T09:46:28.045Z,66.60
2018-12-31T09:48:58.878Z,65.80
2018-12-31T09:51:28.969Z,53.43
2018-12-31T09:54:01.617Z,64.07
2018-12-31T09:56:32.873Z,64.80
2018-12-31T09:59:03.945Z,65.90
2018-12-31T10:01:33.978Z,59.37
2018-12-31T10:04:06.217Z,64.17
2018-12-31T10:06:37.389Z,63.10
2018-12-31T10:09:09.625Z,69.07
2018-12-31T10:11:42.087Z,56.60
2018-12-31T10:14:14.506Z,61.90
2018-12-31T10:16:45.687Z,58.97
2018-12-31T10:19:16.522Z,54.37
2018-12-31T10:21:49.965Z,51.60
2018-12-31T10:24:21.915Z,62.30
2018-12-31T10:26:52.830Z,55.87
2018-12-31T10:29:22.610Z,58.10
2018-12-31T10:31:54.930Z,55.97
2018-12-31T10:34:27.723Z,67.40
2018-12-31T10:36:57.945Z,67.60
2018-12-31T10:39:29.682Z,61.23
2018-12-31T10:41:59.854Z,61.63
2018-12-31T10:44:31.115Z,65.73
2018-12-31T10:47:03.160Z,63.00
2018-12-31T10:49:33.365Z,62.40
2018-12-31T10:52:04.191Z,59.30
2018-12-31T10:54:36.152Z,61.00
2018-12-31T10:57:07.755Z,63.20
2018-12-31T10:59:37.914Z,63.57
2018-12-31T11:02:09.071Z,52.33
2018-12-31T11:04:41.116Z,54.07
2018-12-31T11:07:11.014Z,62.63
2018-12-31T11:09:43.230Z,55.13
2018-12-31T11:12:14.423Z,69.53
2018-12-31T11:14:45.555Z,61.70
2018-12-31T11:17:16.697Z,54.43
2018-12-31T11:19:47.150Z,64.03
2018-12-31T11:22:18.145Z,59.60
2018-12-31T11:24:49.001Z,54.03
2018-12-31T11:27:20.094Z,55.47
2018-12-31T11:29:51.230Z,55.00
2018-12-31T11:32:24.608Z,60.10
2018-12-31T11:34:54.769Z,54.20
2018-12-31T11:37:26.009Z,53.87
2018-12-31T11:39:59.413Z,59.90
2018-12-31T11:42:29.641Z,55.93
2018-12-31T11:45:00.929Z,63.07
2018-12-31T11:47:32.435Z,52.57
2018-12-31T11:50:03.598Z,57.03
2018-12-31T11:52:34.432Z,69.07
2018-12-31T11:55:04.704Z,67.23
2018-12-31T11:57:35.858Z,58.13
2018-12-31T12:00:09.713Z,52.63
2018-12-31T12:02:39.994Z,59.80
2018-12-31T12:05:12.158Z,53.63
2018-12-31T12:07:45.105Z,51.00
2018-12-31T12:10:18.026Z,54.27
2018-12-31T12:12:49.259Z,53.70
2018-12-31T12:15:21.138Z,58.80
2018-12-31T12:17:52.938Z,50.80
2018-12-31T12:20:23.157Z,48.33
2018-12-31T12:22:56.627Z,38.97
2018-12-31T12:25:27.766Z,45.37
2018-12-31T12:27:58.972Z,51.97
2018-12-31T12:30:29.481Z,45.87
2018-12-31T12:33:01.801Z,45.20
2018-12-31T12:35:31.677Z,42.83
2018-12-31T12:38:02.381Z,40.07
2018-12-31T12:40:34.602Z,50.17
2018-12-31T12:43:06.664Z,53.13
2018-12-31T12:45:37.903Z,50.77
2018-12-31T12:48:08.207Z,44.30
2018-12-31T12:50:40.506Z,44.10
2018-12-31T12:53:11.294Z,47.00
2018-12-31T12:55:40.868Z,55.47
2018-12-31T12:58:13.353Z,48.77
2018-12-31T13:00:43.237Z,57.47
2018-12-31T13:03:17.714Z,50.13
2018-12-31T13:05:47.805Z,50.30
2018-12-31T13:08:19.978Z,52.60
2018-12-31T13:10:52.846Z,52.97
2018-12-31T13:13:23.089Z,45.73
2018-12-31T13:15:55.950Z,53.67
2018-12-31T13:18:29.264Z,51.37
2018-12-31T13:20:58.622Z,50.27
2018-12-31T13:23:31.530Z,49.53
2018-12-31T13:26:02.337Z,46.27
2018-12-31T13:28:32.982Z,48.80
2018-12-31T13:31:04.739Z,48.83
2018-12-31T13:33:36.259Z,49.10
2018-12-31T13:36:07.854Z,46.77
2018-12-31T13:38:39.087Z,44.30
2018-12-31T13:41:10.311Z,43.53
2018-12-31T13:43:39.585Z,50.10
2018-12-31T13:46:09.337Z,46.53
2018-12-31T13:48:40.511Z,49.57
2018-12-31T13:51:11.302Z,50.53
2018-12-31T13:53:42.324Z,48.80
2018-12-31T13:56:13.702Z,45.97
2018-12-31T13:58:44.842Z,52.73
2018-12-31T14:01:16.048Z,52.67
2018-12-31T14:03:48.907Z,48.97
2018-12-31T14:06:23.468Z,47.53
2018-12-31T14:08:54.609Z,44.87
2018-12-31T14:11:25.753Z,41.60
2018-12-31T14:13:56.018Z,47.50
2018-12-31T14:16:27.573Z,43.83
2018-12-31T14:18:58.581Z,52.30
2018-12-31T14:21:30.543Z,47.80
2018-12-31T14:24:01.743Z,49.90
2018-12-31T14:26:33.361Z,46.07
2018-12-31T14:29:04.213Z,45.43
2018-12-31T14:31:34.857Z,47.50
2018-12-31T14:34:05.855Z,45.63
2018-12-31T14:36:36.241Z,41.53
2018-12-31T14:39:07.598Z,47.50
2018-12-31T14:41:38.623Z,49.27
2018-12-31T14:44:09.766Z,52.43
2018-12-31T14:46:40.118Z,46.63
2018-12-31T14:49:11.321Z,44.40
2018-12-31T14:51:41.232Z,51.27
2018-12-31T14:54:12.469Z,50.13
2018-12-31T14:56:42.629Z,55.20
2018-12-31T14:59:13.795Z,53.60
2018-12-31T15:01:44.075Z,59.10
2018-12-31T15:04:17.740Z,52.50
2018-12-31T15:06:52.011Z,53.83
2018-12-31T15:09:26.064Z,51.33
2018-12-31T15:11:57.216Z,49.67
2018-12-31T15:14:29.905Z,46.73
2018-12-31T15:17:03.653Z,49.50
2018-12-31T15:19:33.825Z,57.70
2018-12-31T15:22:07.721Z,55.23
2018-12-31T15:24:39.655Z,50.07
2018-12-31T15:27:09.853Z,54.90
2018-12-31T15:29:42.025Z,49.27
2018-12-31T15:32:15.450Z,54.00
2018-12-31T15:34:46.922Z,52.07
2018-12-31T15:37:19.253Z,53.30
2018-12-31T15:39:50.226Z,53.77
2018-12-31T15:42:22.411Z,52.07
2018-12-31T15:44:53.757Z,54.17
2018-12-31T15:47:23.966Z,60.33
2018-12-31T15:49:55.123Z,52.33
2018-12-31T15:52:26.570Z,52.37
2018-12-31T15:54:57.812Z,55.57
2018-12-31T15:57:30.093Z,54.67
2018-12-31T16:00:02.570Z,57.27
2018-12-31T16:02:35.882Z,54.07
2018-12-31T16:05:07.690Z,57.67
2018-12-31T16:07:45.562Z,51.03
2018-12-31T16:10:13.616Z,48.43
2018-12-31T16:12:45.569Z,51.53
2018-12-31T16:15:16.645Z,52.23
2018-12-31T16:17:46.893Z,52.47
2018-12-31T16:20:18.437Z,53.93
2018-12-31T16:22:50.736Z,58.83
2018-12-31T16:25:20.637Z,48.57
2018-12-31T16:27:51.782Z,50.33
2018-12-31T16:30:22.914Z,57.50
2018-12-31T16:32:54.225Z,52.83
2018-12-31T16:35:25.924Z,50.87
2018-12-31T16:37:58.890Z,59.93
2018-12-31T16:40:32.537Z,57.13
2018-12-31T16:43:03.670Z,57.23
2018-12-31T16:45:37.900Z,61.20
2018-12-31T16:48:08.981Z,62.90
2018-12-31T16:50:40.055Z,59.77
2018-12-31T16:53:11.157Z,58.87
2018-12-31T16:55:42.821Z,54.57
2018-12-31T16:58:15.661Z,62.07
2018-12-31T17:00:45.941Z,60.17
2018-12-31T17:03:16.563Z,56.30
2018-12-31T17:05:49.676Z,60.80
2018-12-31T17:08:19.569Z,54.80
2018-12-31T17:10:51.561Z,53.30
2018-12-31T17:13:21.830Z,58.57
2018-12-31T17:15:52.013Z,57.37
2018-12-31T17:18:22.750Z,57.33
2018-12-31T17:20:52.946Z,57.17
2018-12-31T17:23:23.742Z,59.43
2018-12-31T17:25:54.828Z,54.20
2018-12-31T17:28:24.690Z,50.00
2018-12-31T17:30:54.685Z,43.37
2018-12-31T17:33:25.844Z,41.00
2018-12-31T17:35:57.605Z,37.80
2018-12-31T17:38:27.762Z,36.60
2018-12-31T17:41:01.642Z,34.30
2018-12-31T17:43:32.669Z,33.90
2018-12-31T17:46:05.402Z,30.63
2018-12-31T17:48:36.593Z,30.43
2018-12-31T17:51:07.206Z,32.43
2018-12-31T17:53:38.141Z,31.43
2018-12-31T17:56:08.217Z,34.90
2018-12-31T17:58:40.747Z,33.63
2018-12-31T18:01:11.691Z,27.17
2018-12-31T18:03:41.853Z,27.43
2018-12-31T18:06:13.350Z,32.40
2018-12-31T18:08:44.230Z,28.53
2018-12-31T18:11:15.685Z,30.03
2018-12-31T18:13:47.221Z,25.53
2018-12-31T18:16:18.782Z,29.07
2018-12-31T18:18:49.914Z,24.20
2018-12-31T18:21:19.813Z,29.77
2018-12-31T18:23:51.597Z,29.73
2018-12-31T18:26:22.430Z,31.00
2018-12-31T18:28:52.586Z,29.73
2018-12-31T18:31:22.446Z,31.77
2018-12-31T18:33:51.755Z,28.50
2018-12-31T18:36:23.702Z,31.33
2018-12-31T18:38:53.950Z,35.77
2018-12-31T18:41:25.130Z,43.60
2018-12-31T18:43:57.243Z,42.47
2018-12-31T18:46:28.923Z,51.07
2018-12-31T18:49:00.214Z,48.67
2018-12-31T18:51:33.995Z,46.07
2018-12-31T18:54:05.198Z,38.70
2018-12-31T18:56:36.291Z,40.60
2018-12-31T18:59:06.038Z,43.17
2018-12-31T19:01:38.762Z,44.73
2018-12-31T19:04:09.026Z,52.80
2018-12-31T19:06:40.154Z,49.20
2018-12-31T19:09:10.678Z,43.03
2018-12-31T19:11:39.797Z,47.63
2018-12-31T19:14:09.643Z,50.10
2018-12-31T19:16:40.657Z,56.80
2018-12-31T19:19:11.465Z,51.90
2018-12-31T19:21:54.454Z,50.13
2018-12-31T19:24:25.747Z,58.63
2018-12-31T19:27:01.615Z,52.00
2018-12-31T19:29:32.082Z,46.70
2018-12-31T19:32:02.005Z,54.33
2018-12-31T19:34:32.802Z,52.23
2018-12-31T19:37:03.857Z,52.60
2018-12-31T19:39:35.062Z,53.63
2018-12-31T19:42:05.935Z,54.20
2018-12-31T19:44:38.830Z,61.90
2018-12-31T19:47:08.806Z,57.73
2018-12-31T19:49:41.006Z,62.73
2018-12-31T19:52:13.707Z,58.13
2018-12-31T19:54:44.751Z,63.30
2018-12-31T19:57:17.548Z,64.63
2018-12-31T19:59:51.250Z,72.47
2018-12-31T20:02:21.590Z,62.17
2018-12-31T20:04:52.594Z,63.37
2018-12-31T20:07:23.765Z,64.60
2018-12-31T20:09:55.846Z,61.07
2018-12-31T20:12:29.171Z,61.23
2018-12-31T20:15:00.915Z,59.97
2018-12-31T20:17:31.002Z,59.07
2018-12-31T20:20:02.233Z,61.10
2018-12-31T20:22:34.584Z,56.57
2018-12-31T20:25:05.784Z,62.77
2018-12-31T20:27:35.871Z,61.80
2018-12-31T20:30:07.977Z,64.60
2018-12-31T20:32:39.071Z,58.83
2018-12-31T20:35:09.937Z,58.97
2018-12-31T20:37:42.633Z,59.00
2018-12-31T20:40:14.254Z,59.57
2018-12-31T20:42:46.588Z,59.07
2018-12-31T20:45:17.517Z,58.77
2018-12-31T20:47:47.985Z,59.27
2018-12-31T20:50:19.118Z,55.10
2018-12-31T20:52:50.249Z,61.40
2018-12-31T20:55:21.226Z,56.87
2018-12-31T20:57:52.142Z,57.17
2018-12-31T21:00:24.598Z,53.57
2018-12-31T21:02:56.938Z,55.30
2018-12-31T21:05:29.185Z,52.77
2018-12-31T21:08:01.713Z,50.07
2018-12-31T21:10:34.856Z,52.80
2018-12-31T21:13:06.254Z,60.03
2018-12-31T21:15:40.041Z,59.40
2018-12-31T21:18:09.895Z,57.17
2018-12-31T21:20:39.974Z,53.83
2018-12-31T21:23:12.351Z,59.70
2018-12-31T21:25:43.122Z,58.80
2018-12-31T21:28:15.194Z,64.27
2018-12-31T21:30:45.913Z,60.37
2018-12-31T21:33:18.033Z,61.93
2018-12-31T21:35:49.401Z,71.50
2018-12-31T21:38:19.809Z,65.53
2018-12-31T21:40:50.670Z,58.80
2018-12-31T21:43:21.465Z,63.50
2018-12-31T21:45:52.445Z,67.53
2018-12-31T21:48:26.483Z,57.83
2018-12-31T21:50:59.309Z,63.17
2018-12-31T21:53:32.262Z,57.97
2018-12-31T21:56:03.500Z,64.53
2018-12-31T21:58:34.348Z,60.13
2018-12-31T22:01:04.985Z,68.50
2018-12-31T22:03:36.716Z,64.17
2018-12-31T22:06:06.929Z,60.90
2018-12-31T22:08:40.710Z,59.97
2018-12-31T22:11:11.622Z,59.03
2018-12-31T22:13:43.137Z,64.37
2018-12-31T22:16:14.838Z,65.50
2018-12-31T22:18:45.835Z,63.10
2018-12-31T22:21:16.025Z,81.07
2018-12-31T22:23:46.253Z,84.77
2018-12-31T22:26:17.366Z,90.17
2018-12-31T22:28:48.325Z,92.60
2018-12-31T22:31:20.806Z,93.23
2018-12-31T22:33:52.013Z,93.07
2018-12-31T22:36:23.722Z,84.97
2018-12-31T22:38:55.116Z,91.73
2018-12-31T22:41:25.317Z,65.53
2018-12-31T22:43:56.158Z,59.83
2018-12-31T22:46:28.474Z,57.00
2018-12-31T22:49:01.077Z,58.07
2018-12-31T22:51:31.131Z,60.00
2018-12-31T22:54:03.310Z,56.60
2018-12-31T22:56:34.177Z,56.90
2018-12-31T22:59:08.235Z,54.73
2018-12-31T23:01:40.726Z,60.60
2018-12-31T23:04:10.694Z,119.73
2018-12-31T23:06:42.481Z,337.13
2018-12-31T23:09:13.620Z,260.40
2018-12-31T23:11:43.701Z,295.23
2018-12-31T23:14:14.393Z,235.77
2018-12-31T23:16:46.301Z,447.70
2018-12-31T23:19:16.517Z,262.67
2018-12-31T23:21:48.891Z,237.63
2018-12-31T23:24:20.011Z,176.73
2018-12-31T23:26:53.433Z,176.00
2018-12-31T23:29:24.146Z,198.37
2018-12-31T23:31:58.098Z,225.87
2018-12-31T23:34:27.777Z,227.70
2018-12-31T23:37:01.562Z,195.67
2018-12-31T23:39:33.526Z,244.57
2018-12-31T23:42:04.846Z,156.97
2018-12-31T23:44:36.486Z,131.10
2018-12-31T23:47:08.996Z,141.30
2018-12-31T23:49:42.031Z,133.80
2018-12-31T23:52:12.122Z,113.70
2018-12-31T23:54:43.416Z,106.40
2018-12-31T23:57:14.395Z,97.13
2018-12-31T23:59:47.146Z,101.97
